Aviation Digital Data Service (ADDS)

Output produced by METARs form (0751 UTC 30 August 2015)
found at http://aviationweather.gov/adds/metars/
 
KLBT 300520Z 3006/3106 00000KT P6SM OVC250 
     TEMPO 3009/3012 00000KT 3SM BR SCT120 BKN200 
     FM301200 07003KT P6SM BKN060 BKN150 
     FM302000 12006KT P6SM VCSH BKN050 OVC120 
     FM310000 14003KT P6SM VCSH BKN040 OVC080